Time;durP1;ratioP1;P1;durP2;ratioP2;P2;SDS_P1;SDS_P2;PMS_P1;PMS_P2;Temp;Humidity;BMP_temperature;BMP_pressure;BME280_temperature;BME280_humidity;BME280_pressure;Samples;Min_cycle;Max_cycle;Signal;HPM_P1;HPM_P2
2023/03/20 00:01:25;;;;;;;79.72;48.45;;;12.50;99.90;;;;;;5033793;28;20536;-52
2023/03/20 00:03:51;;;;;;;77.43;49.97;;;12.50;99.90;;;;;;5034130;28;20039;-51
2023/03/20 00:06:25;;;;;;;80.97;52.67;;;12.50;99.90;;;;;;5033559;28;20021;-51
2023/03/20 00:08:53;;;;;;;47.95;34.55;;;12.50;99.90;;;;;;5048341;28;20489;-51
2023/03/20 00:11:39;;;;;;;44.70;31.40;;;12.60;99.90;;;;;;5015085;28;20124;-51
2023/03/20 00:14:09;;;;;;;52.30;33.65;;;12.50;99.90;;;;;;5031326;28;20091;-52
2023/03/20 00:16:37;;;;;;;46.85;33.95;;;12.50;99.90;;;;;;5031355;28;20504;-52
2023/03/20 00:19:04;;;;;;;55.53;38.80;;;12.50;99.90;;;;;;5031270;28;20453;-51
2023/03/20 00:21:30;;;;;;;51.10;35.42;;;12.60;99.90;;;;;;5031244;28;20402;-52
2023/03/20 00:23:56;;;;;;;50.92;33.88;;;12.50;99.90;;;;;;5031160;28;20087;-52
2023/03/20 00:26:27;;;;;;;47.03;34.75;;;12.50;99.90;;;;;;5031099;28;20034;-52
2023/03/20 00:28:53;;;;;;;43.00;30.40;;;12.50;99.90;;;;;;5031321;28;20049;-52
2023/03/20 00:31:25;;;;;;;41.78;28.70;;;12.40;99.90;;;;;;5031266;28;20108;-52
2023/03/20 00:33:56;;;;;;;41.88;30.65;;;12.40;99.90;;;;;;5031208;28;20060;-51
2023/03/20 00:36:22;;;;;;;34.22;25.40;;;12.30;99.90;;;;;;5028394;28;20029;-52
2023/03/20 00:38:49;;;;;;;38.30;30.30;;;11.90;99.90;;;;;;5030930;28;20120;-51
2023/03/20 00:41:24;;;;;;;39.83;29.15;;;11.60;99.90;;;;;;5031337;28;20473;-52
2023/03/20 00:43:58;;;;;;;38.97;28.80;;;11.20;99.90;;;;;;5033473;28;20045;-52
2023/03/20 00:46:25;;;;;;;40.65;28.88;;;11.00;99.90;;;;;;5047758;28;20034;-52
2023/03/20 00:48:51;;;;;;;38.78;27.52;;;10.90;99.90;;;;;;5034769;28;20385;-51
2023/03/20 00:51:18;;;;;;;34.20;25.67;;;10.70;99.90;;;;;;5037382;28;20056;-51
2023/03/20 00:53:44;;;;;;;40.97;27.98;;;;;;;;;;5037271;28;20033;-52
2023/03/20 00:56:54;;;;;;;40.55;28.58;;;10.70;99.90;;;;;;5037184;28;20508;-51
2023/03/20 00:59:23;;;;;;;39.78;27.60;;;10.60;99.90;;;;;;5034816;28;20038;-52
2023/03/20 01:01:49;;;;;;;48.72;32.45;;;10.90;99.90;;;;;;5018857;28;20036;-52
2023/03/20 01:04:18;;;;;;;43.15;28.30;;;11.10;99.90;;;;;;5018289;28;20128;-52
2023/03/20 01:06:44;;;;;;;39.55;28.20;;;11.30;99.90;;;;;;5034771;28;20033;-52
2023/03/20 01:09:10;;;;;;;50.88;35.35;;;11.40;99.90;;;;;;5034707;28;20571;-51
2023/03/20 01:11:38;;;;;;;41.25;28.15;;;11.50;99.90;;;;;;5034679;28;20077;-52
2023/03/20 01:14:05;;;;;;;33.38;25.58;;;11.50;99.90;;;;;;5034759;28;20036;-52
2023/03/20 01:16:31;;;;;;;34.67;26.17;;;11.60;99.90;;;;;;5034556;28;20080;-51
2023/03/20 01:18:56;;;;;;;35.83;27.30;;;11.50;99.90;;;;;;5018097;28;20487;-52
2023/03/20 01:21:22;;;;;;;31.08;21.95;;;11.50;99.90;;;;;;5017886;28;20108;-52
2023/03/20 01:23:49;;;;;;;29.40;22.00;;;11.50;99.90;;;;;;4984978;28;20397;-51
2023/03/20 01:26:28;;;;;;;27.80;21.38;;;11.50;99.90;;;;;;5034557;28;20036;-52
2023/03/20 01:28:54;;;;;;;30.60;21.25;;;11.50;99.90;;;;;;5034244;28;20036;-52
2023/03/20 01:31:20;;;;;;;33.53;22.10;;;11.40;99.90;;;;;;5034670;28;20029;-51
2023/03/20 01:33:46;;;;;;;31.75;24.30;;;11.50;99.90;;;;;;5034215;28;20026;-52
2023/03/20 01:36:14;;;;;;;34.17;24.13;;;11.50;99.90;;;;;;5026156;28;20379;-51
2023/03/20 01:38:40;;;;;;;38.20;26.45;;;11.60;99.90;;;;;;5016436;28;20386;-52
2023/03/20 01:41:17;;;;;;;39.15;28.48;;;11.50;99.90;;;;;;5015646;28;20037;-52
2023/03/20 01:43:44;;;;;;;38.55;28.13;;;11.50;99.90;;;;;;5016772;28;20021;-52
2023/03/20 01:46:10;;;;;;;37.72;27.00;;;11.40;99.90;;;;;;5016454;28;20121;-52
2023/03/20 01:49:28;;;;;;;37.17;27.52;;;11.40;99.90;;;;;;5016513;28;20057;-51
2023/03/20 01:51:55;;;;;;;34.38;26.33;;;11.40;99.90;;;;;;5016533;28;20022;-51
2023/03/20 01:54:38;;;;;;;34.03;25.17;;;11.40;99.90;;;;;;5016264;28;20034;-52
2023/03/20 01:57:24;;;;;;;34.28;25.90;;;11.20;99.90;;;;;;5016397;28;20532;-51
2023/03/20 02:00:03;;;;;;;39.53;29.63;;;11.00;99.90;;;;;;5015241;28;20038;-52
2023/03/20 02:02:30;;;;;;;39.10;30.08;;;10.90;99.90;;;;;;5016191;28;20026;-51
2023/03/20 02:05:01;;;;;;;50.80;35.55;;;10.90;99.90;;;;;;5016032;28;20084;-52
2023/03/20 02:07:27;;;;;;;60.55;45.40;;;10.90;99.90;;;;;;5016094;28;20466;-52
2023/03/20 02:09:52;;;;;;;57.05;42.95;;;10.90;99.90;;;;;;5016166;28;20497;-51
2023/03/20 02:12:19;;;;;;;48.83;37.55;;;10.90;99.90;;;;;;5016343;28;20030;-52
2023/03/20 02:14:46;;;;;;;55.55;42.28;;;10.90;99.90;;;;;;5016152;28;20378;-51
2023/03/20 02:17:12;;;;;;;45.05;33.92;;;;;;;;;;5015956;28;20385;-52
2023/03/20 02:19:53;;;;;;;38.75;30.40;;;10.80;99.90;;;;;;5030412;28;20410;-52
2023/03/20 02:22:40;;;;;;;41.72;31.70;;;10.70;99.90;;;;;;5015725;28;20133;-52
2023/03/20 02:25:26;;;;;;;41.08;31.02;;;10.70;99.90;;;;;;5030472;28;20040;-52
2023/03/20 02:28:29;;;;;;;39.00;30.27;;;10.70;99.90;;;;;;5015674;28;20026;-52
2023/03/20 02:31:02;;;;;;;32.67;24.92;;;10.80;99.90;;;;;;5015654;28;20441;-52
2023/03/20 02:33:39;;;;;;;36.75;24.50;;;10.70;99.90;;;;;;5016092;28;20480;-51
2023/03/20 02:36:33;;;;;;;40.10;26.63;;;10.80;99.90;;;;;;5015429;28;20036;-51
2023/03/20 02:39:01;;;;;;;37.22;29.17;;;10.90;99.90;;;;;;5015422;28;20026;-51
2023/03/20 02:41:36;;;;;;;36.80;29.13;;;10.90;99.90;;;;;;5015637;28;20466;-52
2023/03/20 02:44:07;;;;;;;42.90;30.65;;;10.90;99.90;;;;;;5015463;28;20037;-51
2023/03/20 02:46:39;;;;;;;44.87;32.40;;;10.90;99.90;;;;;;5015404;28;20049;-51
2023/03/20 02:49:07;;;;;;;44.27;32.27;;;11.00;99.90;;;;;;5015311;28;20259;-52
2023/03/20 02:51:59;;;;;;;42.40;30.35;;;11.00;99.90;;;;;;5015287;28;20029;-51
2023/03/20 02:54:39;;;;;;;39.45;29.27;;;11.10;99.90;;;;;;5015380;28;20033;-51
2023/03/20 02:57:11;;;;;;;39.33;28.67;;;11.10;99.90;;;;;;5015424;28;20025;-51
2023/03/20 02:59:42;;;;;;;33.05;23.30;;;11.10;99.90;;;;;;5015148;28;20034;-51
2023/03/20 03:02:14;;;;;;;36.20;24.08;;;11.10;99.90;;;;;;5014924;28;20386;-51
2023/03/20 03:05:02;;;;;;;30.77;24.42;;;11.10;99.90;;;;;;5014622;28;20025;-51
2023/03/20 03:07:31;;;;;;;34.67;23.08;;;11.20;99.90;;;;;;5015194;28;20041;-51
2023/03/20 03:10:29;;;;;;;32.95;23.23;;;11.20;99.90;;;;;;5014708;28;20091;-53
2023/03/20 03:12:57;;;;;;;28.73;21.65;;;11.10;99.90;;;;;;5014352;28;20030;-51
2023/03/20 03:15:39;;;;;;;28.17;22.10;;;11.10;99.90;;;;;;5015082;28;20351;-51
2023/03/20 03:18:10;;;;;;;32.95;22.00;;;11.20;99.90;;;;;;5014621;28;20390;-50
2023/03/20 03:20:38;;;;;;;27.07;19.83;;;11.10;99.90;;;;;;5014549;28;20553;-50
2023/03/20 03:23:05;;;;;;;26.10;19.60;;;11.10;99.90;;;;;;5014511;28;20287;-51
2023/03/20 03:25:39;;;;;;;27.45;19.88;;;11.00;99.90;;;;;;5014624;28;20126;-51
2023/03/20 03:28:31;;;;;;;28.50;20.25;;;11.00;99.90;;;;;;5014618;28;20034;-50
2023/03/20 03:30:57;;;;;;;;;;;11.00;99.90;;;;;;4993330;28;20387;-51
2023/03/20 03:33:28;;;;;;;28.48;19.55;;;11.00;99.90;;;;;;4992737;28;20365;-51
2023/03/20 03:36:12;;;;;;;32.53;21.85;;;11.00;99.90;;;;;;4992752;28;20077;-51
2023/03/20 03:38:48;;;;;;;32.95;21.38;;;11.10;99.90;;;;;;4992736;28;20493;-51
2023/03/20 03:41:19;;;;;;;30.73;21.73;;;11.20;99.90;;;;;;4976292;28;20137;-51
2023/03/20 03:44:07;;;;;;;27.83;20.80;;;11.20;99.90;;;;;;4992593;28;20058;-51
2023/03/20 03:46:49;;;;;;;29.98;19.10;;;11.20;99.90;;;;;;4973125;28;20038;-51
2023/03/20 03:49:22;;;;;;;23.80;18.47;;;11.20;99.90;;;;;;4973019;28;20035;-51
2023/03/20 03:51:52;;;;;;;23.25;18.15;;;11.20;99.90;;;;;;4973046;28;20042;-51
2023/03/20 03:54:51;;;;;;;22.45;17.15;;;11.20;99.90;;;;;;4973007;28;20478;-51
2023/03/20 03:57:23;;;;;;;21.17;16.23;;;11.20;99.90;;;;;;4972853;28;20122;-51
2023/03/20 03:59:51;;;;;;;22.35;15.88;;;11.20;99.90;;;;;;4972964;28;20039;-51
2023/03/20 04:02:20;;;;;;;22.20;16.48;;;11.10;99.90;;;;;;4942189;28;20043;-51
2023/03/20 04:04:50;;;;;;;20.20;16.00;;;11.10;99.90;;;;;;4934317;29;20058;-51
2023/03/20 04:07:16;;;;;;;28.30;16.55;;;11.00;99.90;;;;;;4938778;29;20039;-51
2023/03/20 04:09:42;;;;;;;24.98;16.52;;;10.90;99.90;;;;;;4953582;29;20102;-51
2023/03/20 04:12:28;;;;;;;23.85;16.00;;;10.90;99.90;;;;;;4953285;28;20078;-51
2023/03/20 04:14:53;;;;;;;18.13;14.35;;;10.90;99.90;;;;;;4953478;29;20054;-50
2023/03/20 04:17:19;;;;;;;22.27;14.57;;;10.80;99.90;;;;;;4937389;29;20483;-51
2023/03/20 04:19:45;;;;;;;21.00;15.63;;;10.80;99.90;;;;;;4953293;28;20054;-51
2023/03/20 04:22:10;;;;;;;19.70;13.90;;;10.70;99.90;;;;;;4953243;29;20047;-51
2023/03/20 04:24:36;;;;;;;23.92;15.27;;;10.80;99.90;;;;;;5007635;28;20045;-51
2023/03/20 04:27:03;;;;;;;20.90;14.82;;;10.80;99.90;;;;;;5013814;28;20049;-52
2023/03/20 04:29:29;;;;;;;22.08;15.48;;;10.80;99.90;;;;;;5014034;28;20370;-51
2023/03/20 04:31:55;;;;;;;19.63;14.27;;;10.80;99.90;;;;;;5013655;28;20032;-51
2023/03/20 04:34:22;;;;;;;20.55;13.68;;;10.80;99.90;;;;;;5013494;28;20021;-51
2023/03/20 04:36:47;;;;;;;23.00;14.20;;;10.80;99.90;;;;;;5013435;28;20029;-51
2023/03/20 04:39:14;;;;;;;19.77;13.98;;;10.80;99.90;;;;;;5013496;28;20022;-51
2023/03/20 04:41:40;;;;;;;24.30;13.57;;;10.80;99.90;;;;;;5013578;28;20030;-51
2023/03/20 04:44:05;;;;;;;18.80;13.93;;;10.80;99.90;;;;;;5011624;28;20117;-52
2023/03/20 04:46:31;;;;;;;14.98;11.60;;;10.80;99.90;;;;;;5013454;28;20037;-52
2023/03/20 04:48:57;;;;;;;17.60;12.93;;;10.80;99.90;;;;;;5013365;28;20034;-51
2023/03/20 04:51:23;;;;;;;15.07;11.73;;;10.80;99.90;;;;;;5013307;28;20032;-51
2023/03/20 04:53:49;;;;;;;18.10;11.52;;;10.80;99.90;;;;;;5013803;28;20406;-51
2023/03/20 04:56:14;;;;;;;24.23;12.68;;;10.80;99.90;;;;;;5013382;28;20037;-52
2023/03/20 04:58:40;;;;;;;19.65;12.18;;;10.80;99.90;;;;;;5010992;28;20038;-51
2023/03/20 05:01:06;;;;;;;17.20;11.27;;;10.90;99.90;;;;;;5011188;28;20042;-51
2023/03/20 05:03:32;;;;;;;17.38;11.88;;;10.90;99.90;;;;;;5011033;28;20160;-51
2023/03/20 05:05:58;;;;;;;16.88;12.00;;;11.00;99.90;;;;;;5026364;28;20161;-51
2023/03/20 05:08:24;;;;;;;15.55;11.13;;;11.00;99.90;;;;;;5003404;28;20046;-52
2023/03/20 05:10:50;;;;;;;19.42;11.82;;;11.00;99.90;;;;;;5011219;28;20176;-52
2023/03/20 05:13:16;;;;;;;15.63;11.00;;;11.10;99.90;;;;;;4994726;28;20105;-52
2023/03/20 05:15:42;;;;;;;19.23;11.52;;;11.10;99.90;;;;;;4978213;28;20184;-51
2023/03/20 05:18:08;;;;;;;13.93;9.77;;;11.20;99.90;;;;;;4994687;28;20131;-51
2023/03/20 05:20:35;;;;;;;15.77;10.50;;;11.30;99.90;;;;;;4994482;28;20506;-51
2023/03/20 05:23:01;;;;;;;14.15;10.38;;;11.30;99.90;;;;;;5010912;28;20050;-52
2023/03/20 05:25:27;;;;;;;14.73;10.45;;;11.30;99.90;;;;;;5010844;28;20115;-52
2023/03/20 05:27:53;;;;;;;15.00;11.38;;;11.60;99.90;;;;;;5010916;28;20579;-51
2023/03/20 05:30:18;;;;;;;13.15;9.73;;;11.60;99.90;;;;;;5026232;28;20037;-51
2023/03/20 05:32:45;;;;;;;17.83;10.20;;;11.70;99.90;;;;;;5032916;28;20381;-51
2023/03/20 05:35:11;;;;;;;16.48;9.02;;;11.70;99.90;;;;;;5034466;28;20021;-52
2023/03/20 05:37:37;;;;;;;14.43;9.82;;;11.80;99.90;;;;;;5036592;28;20497;-52
2023/03/20 05:40:04;;;;;;;13.93;9.63;;;12.00;99.90;;;;;;5051166;28;20048;-52
2023/03/20 05:42:30;;;;;;;12.55;9.80;;;12.00;99.90;;;;;;5034060;28;20121;-52
2023/03/20 05:44:56;;;;;;;14.52;9.63;;;12.10;99.90;;;;;;5036468;28;20444;-52
2023/03/20 05:47:22;;;;;;;20.40;10.68;;;12.20;99.90;;;;;;5034027;28;20036;-51
2023/03/20 05:49:47;;;;;;;17.13;9.95;;;12.30;99.90;;;;;;5000741;28;20042;-51
2023/03/20 05:52:13;;;;;;;13.73;9.45;;;12.30;99.90;;;;;;5027807;28;20022;-52
2023/03/20 05:54:39;;;;;;;13.23;9.63;;;12.30;99.90;;;;;;5044450;28;20033;-52
2023/03/20 05:57:05;;;;;;;19.17;12.05;;;12.50;99.90;;;;;;5026332;28;20369;-51
2023/03/20 05:59:30;;;;;;;13.57;9.30;;;12.60;99.90;;;;;;5025757;28;20138;-52
2023/03/20 06:01:56;;;;;;;12.75;9.05;;;12.60;99.90;;;;;;5023910;28;20120;-52
2023/03/20 06:04:22;;;;;;;15.10;10.70;;;12.70;99.90;;;;;;5024076;28;20088;-51
2023/03/20 06:06:47;;;;;;;12.90;8.95;;;12.80;99.90;;;;;;5044815;28;20037;-51
2023/03/20 06:09:13;;;;;;;14.70;10.75;;;12.90;99.90;;;;;;5033704;28;20034;-51
2023/03/20 06:11:39;;;;;;;17.10;12.27;;;13.00;99.90;;;;;;5022495;28;20393;-51
2023/03/20 06:14:04;;;;;;;18.17;12.07;;;13.20;99.90;;;;;;5014195;28;20033;-51
2023/03/20 06:16:30;;;;;;;17.00;12.30;;;13.40;99.90;;;;;;5016081;28;20037;-51
2023/03/20 06:18:57;;;;;;;16.45;10.93;;;13.40;99.90;;;;;;5013878;28;20045;-51
2023/03/20 06:21:22;;;;;;;21.00;11.13;;;13.40;99.90;;;;;;5014146;28;20038;-51
2023/03/20 06:23:48;;;;;;;16.27;9.93;;;13.60;99.90;;;;;;5016189;28;20092;-52
2023/03/20 06:26:14;;;;;;;17.52;10.27;;;13.70;99.90;;;;;;5030548;28;20120;-52
2023/03/20 06:28:40;;;;;;;14.15;9.27;;;13.70;99.90;;;;;;5015793;28;20026;-51
2023/03/20 06:31:08;;;;;;;17.27;12.63;;;13.80;99.90;;;;;;5018167;28;20075;-52
2023/03/20 06:33:34;;;;;;;17.40;13.73;;;14.00;99.90;;;;;;5035759;28;20029;-51
2023/03/20 06:36:00;;;;;;;17.55;11.55;;;14.10;99.90;;;;;;5035410;28;20370;-52
2023/03/20 06:38:25;;;;;;;18.63;12.05;;;14.30;99.90;;;;;;5035256;28;20132;-52
2023/03/20 06:40:51;;;;;;;13.43;8.88;;;14.40;99.90;;;;;;5035236;28;20069;-52
2023/03/20 06:43:18;;;;;;;16.23;11.55;;;14.50;99.90;;;;;;5035472;28;20099;-52
2023/03/20 06:45:43;;;;;;;14.98;10.00;;;14.70;99.90;;;;;;5034839;28;20036;-51
2023/03/20 06:48:10;;;;;;;14.68;10.57;;;14.90;99.90;;;;;;5034728;28;20029;-52
2023/03/20 06:50:36;;;;;;;14.45;10.98;;;14.80;99.90;;;;;;5035296;28;20029;-52
2023/03/20 06:53:02;;;;;;;18.23;11.15;;;15.00;99.90;;;;;;5035281;28;20037;-52
2023/03/20 06:55:28;;;;;;;14.80;9.75;;;15.20;99.90;;;;;;5035025;28;20036;-52
2023/03/20 06:57:54;;;;;;;12.18;9.10;;;15.30;99.90;;;;;;5049815;28;20117;-52
2023/03/20 07:00:20;;;;;;;13.52;9.13;;;15.40;99.90;;;;;;5034997;28;20096;-51
2023/03/20 07:02:47;;;;;;;13.95;9.80;;;15.20;99.90;;;;;;5044909;28;20041;-54
2023/03/20 07:05:14;;;;;;;19.38;10.20;;;15.50;99.90;;;;;;5034687;28;20029;-51
2023/03/20 07:07:40;;;;;;;15.93;9.38;;;15.70;99.90;;;;;;5032309;28;20536;-51
2023/03/20 07:10:06;;;;;;;16.75;11.20;;;16.00;99.90;;;;;;5025831;28;20363;-52
2023/03/20 07:12:33;;;;;;;17.50;12.13;;;16.20;99.90;;;;;;5024019;28;20355;-52
2023/03/20 07:14:59;;;;;;;10.63;8.35;;;16.40;99.90;;;;;;5024085;28;20030;-51
2023/03/20 07:17:25;;;;;;;11.88;8.55;;;16.50;99.90;;;;;;5043020;28;20363;-52
2023/03/20 07:19:51;;;;;;;15.80;10.13;;;16.50;99.90;;;;;;5020687;28;20073;-52
2023/03/20 07:22:25;;;;;;;12.40;7.90;;;16.60;99.90;;;;;;5033189;28;20064;-52
2023/03/20 07:24:51;;;;;;;12.60;8.85;;;16.70;99.90;;;;;;5034493;28;20048;-53
2023/03/20 07:27:17;;;;;;;13.52;8.90;;;16.70;99.90;;;;;;5034315;28;20030;-48
2023/03/20 07:29:44;;;;;;;12.45;9.27;;;16.60;99.90;;;;;;5049062;28;20163;-56
2023/03/20 07:32:10;;;;;;;13.85;9.85;;;16.90;99.90;;;;;;5034006;28;20430;-55
2023/03/20 07:34:36;;;;;;;18.20;10.60;;;;;;;;;;5034367;28;20462;-53
2023/03/20 07:37:03;;;;;;;14.73;9.70;;;17.50;99.90;;;;;;5048215;28;20127;-53
2023/03/20 07:39:28;;;;;;;14.30;8.80;;;17.60;99.90;;;;;;5023321;28;20053;-55
2023/03/20 07:41:54;;;;;;;15.57;10.20;;;17.70;99.60;;;;;;5037459;28;20030;-54
2023/03/20 07:44:20;;;;;;;16.42;10.00;;;17.60;99.30;;;;;;5034065;28;20075;-54
2023/03/20 07:46:46;;;;;;;16.15;9.23;;;;;;;;;;5023581;28;20076;-55
2023/03/20 07:49:13;;;;;;;12.40;8.70;;;;;;;;;;5019490;28;20061;-53
2023/03/20 07:51:39;;;;;;;12.60;8.00;;;18.00;98.00;;;;;;5046243;28;20124;-53
2023/03/20 07:54:05;;;;;;;13.07;8.32;;;18.40;98.30;;;;;;5030880;28;20105;-53
2023/03/20 07:56:31;;;;;;;16.70;8.18;;;;;;;;;;5021414;28;20042;-53
2023/03/20 07:58:57;;;;;;;13.13;7.80;;;18.90;99.90;;;;;;5024685;28;20028;-51
2023/03/20 08:01:23;;;;;;;10.65;7.32;;;;;;;;;;5022843;28;20037;-53
2023/03/20 08:03:49;;;;;;;11.27;8.18;;;19.40;95.80;;;;;;5040560;28;20100;-53
2023/03/20 08:06:15;;;;;;;12.77;9.13;;;19.40;95.90;;;;;;5047378;28;20472;-53
2023/03/20 08:08:40;;;;;;;11.70;7.15;;;19.70;95.90;;;;;;5025853;28;20022;-53
2023/03/20 08:11:06;;;;;;;10.23;7.22;;;;;;;;;;5042886;28;20037;-52
2023/03/20 08:13:33;;;;;;;11.57;7.18;;;;;;;;;;5013758;28;20018;-54
2023/03/20 08:15:58;;;;;;;9.98;6.85;;;20.90;99.90;;;;;;5012081;28;20088;-54
2023/03/20 08:18:24;;;;;;;10.38;6.30;;;;;;;;;;5013733;28;20480;-54
2023/03/20 08:20:51;;;;;;;9.30;6.38;;;;;;;;;;5012016;28;20038;-52
2023/03/20 08:23:17;;;;;;;14.48;6.72;;;;;;;;;;5027486;28;20195;-52
2023/03/20 08:25:50;;;;;;;8.63;5.38;;;;;;;;;;5024280;28;20013;-49
2023/03/20 08:28:17;;;;;;;8.48;6.32;;;21.80;99.30;;;;;;5023712;28;20025;-53
2023/03/20 08:30:43;;;;;;;10.23;6.55;;;21.40;98.30;;;;;;5021985;28;20386;-53
2023/03/20 08:33:09;;;;;;;10.07;5.82;;;21.40;99.90;;;;;;5023790;28;20021;-53
2023/03/20 08:35:35;;;;;;;8.32;6.32;;;;;;;;;;5023577;28;20454;-51
2023/03/20 08:38:02;;;;;;;16.00;6.57;;;;;;;;;;5015869;28;20045;-53
2023/03/20 08:40:27;;;;;;;8.07;5.68;;;21.40;98.10;;;;;;5033063;28;20397;-55
2023/03/20 08:42:53;;;;;;;7.90;5.57;;;21.40;97.30;;;;;;5014864;28;20034;-56
2023/03/20 08:45:19;;;;;;;7.63;5.25;;;21.80;96.50;;;;;;5030781;28;20470;-52
2023/03/20 08:47:48;;;;;;;11.32;5.30;;;;;;;;;;5021919;28;20022;-51
2023/03/20 08:50:14;;;;;;;11.63;6.28;;;;;;;;;;5018075;28;20080;-54
2023/03/20 08:52:42;;;;;;;7.97;5.63;;;;;;;;;;5023094;28;20030;-51
2023/03/20 08:55:13;;;;;;;9.32;5.60;;;23.80;89.50;;;;;;5033082;28;20436;-53
2023/03/20 08:57:40;;;;;;;7.70;5.50;;;23.70;90.00;;;;;;5033092;28;20539;-55
2023/03/20 09:00:08;;;;;;;16.55;7.07;;;23.90;96.60;;;;;;5047700;28;20068;-55
2023/03/20 09:02:34;;;;;;;14.65;5.93;;;23.90;89.80;;;;;;5031269;28;20112;-52
2023/03/20 09:05:01;;;;;;;11.48;6.22;;;23.30;88.20;;;;;;5031641;28;20042;-52
2023/03/20 09:07:27;;;;;;;7.55;4.50;;;23.80;99.30;;;;;;5033166;28;20022;-52
2023/03/20 09:09:53;;;;;;;6.80;4.97;;;;;;;;;;5034658;28;20029;-56
2023/03/20 09:12:19;;;;;;;10.32;5.47;;;;;;;;;;5051657;28;20025;-52
2023/03/20 09:14:44;;;;;;;6.85;5.22;;;24.50;84.40;;;;;;5037034;28;20025;-52
2023/03/20 09:17:10;;;;;;;7.57;5.30;;;24.10;84.80;;;;;;5051657;28;20389;-55
2023/03/20 09:19:38;;;;;;;10.35;7.07;;;;;;;;;;5034574;28;20045;-56
2023/03/20 09:22:04;;;;;;;10.35;5.15;;;24.90;96.20;;;;;;5034310;28;20410;-53
2023/03/20 09:24:31;;;;;;;8.73;4.75;;;25.30;83.70;;;;;;5034488;28;20099;-54
2023/03/20 09:26:59;;;;;;;8.95;4.85;;;;;;;;;;5034512;28;20033;-50
2023/03/20 09:29:25;;;;;;;8.82;4.95;;;;;;;;;;5034477;28;20037;-54
2023/03/20 09:31:52;;;;;;;40.97;7.63;;;;;;;;;;5034466;28;20590;-52
2023/03/20 09:34:18;;;;;;;8.75;5.88;;;26.00;93.90;;;;;;5034452;28;20467;-51
2023/03/20 09:36:45;;;;;;;7.97;4.88;;;25.30;87.80;;;;;;5034390;28;20633;-52
2023/03/20 09:39:10;;;;;;;7.63;5.55;;;26.20;92.20;;;;;;5034017;28;20127;-53
2023/03/20 09:41:37;;;;;;;8.93;5.15;;;26.20;88.30;;;;;;5034170;28;20068;-54
2023/03/20 09:44:09;;;;;;;9.98;6.82;;;;;;;;;;5034271;28;20382;-53
2023/03/20 09:46:59;;;;;;;15.07;6.03;;;26.20;84.90;;;;;;5034212;28;20033;-55
2023/03/20 09:49:37;;;;;;;23.73;6.03;;;26.20;79.20;;;;;;5034286;28;20025;-54
2023/03/20 09:52:28;;;;;;;13.93;8.38;;;25.90;79.10;;;;;;5036606;28;20022;-53
2023/03/20 09:54:59;;;;;;;10.07;6.63;;;26.10;79.90;;;;;;5036267;28;20033;-54
2023/03/20 09:57:38;;;;;;;19.92;12.23;;;26.50;79.50;;;;;;5036486;28;20044;-51
2023/03/20 10:00:17;;;;;;;9.10;6.00;;;26.30;77.80;;;;;;5036278;28;20033;-53
2023/03/20 10:02:55;;;;;;;8.68;5.13;;;25.50;77.50;;;;;;5000900;28;20032;-54
2023/03/20 10:05:29;;;;;;;13.07;8.88;;;25.30;77.50;;;;;;5036595;28;20078;-53
2023/03/20 10:08:01;;;;;;;7.07;3.53;;;25.30;77.20;;;;;;5035881;28;20466;-51
2023/03/20 10:10:59;;;;;;;7.55;4.65;;;25.40;76.20;;;;;;5036080;28;20026;-53
2023/03/20 10:13:54;;;;;;;10.70;6.57;;;25.10;76.90;;;;;;5033769;28;20100;-53
2023/03/20 10:16:47;;;;;;;6.00;3.95;;;25.40;77.80;;;;;;5027310;28;20041;-54
2023/03/20 10:19:30;;;;;;;8.68;4.35;;;25.20;76.60;;;;;;5033400;28;20041;-54
2023/03/20 10:22:02;;;;;;;10.82;4.97;;;24.90;75.90;;;;;;5032303;28;20083;-54
2023/03/20 10:24:40;;;;;;;12.05;6.68;;;24.40;76.90;;;;;;5033556;28;20034;-54
2023/03/20 10:27:40;;;;;;;8.40;4.57;;;23.80;78.30;;;;;;5033539;28;20039;-53
2023/03/20 10:30:30;;;;;;;8.98;4.63;;;23.80;78.90;;;;;;5028583;28;20116;-55
2023/03/20 10:33:34;;;;;;;14.27;5.35;;;24.20;79.30;;;;;;5032962;28;20041;-54
2023/03/20 10:36:11;;;;;;;16.95;5.15;;;24.20;78.70;;;;;;5033267;28;20025;-56
2023/03/20 10:38:52;;;;;;;9.75;4.97;;;24.30;77.80;;;;;;5033199;28;20060;-52
2023/03/20 10:41:24;;;;;;;8.13;4.30;;;24.20;77.70;;;;;;5033252;28;20074;-53
2023/03/20 10:43:51;;;;;;;7.55;4.32;;;24.20;78.50;;;;;;5024288;28;20037;-51
2023/03/20 10:46:42;;;;;;;9.48;5.32;;;24.60;77.40;;;;;;5020039;28;20021;-52
2023/03/20 10:50:02;;;;;;;11.70;4.93;;;25.00;78.40;;;;;;5027870;28;20072;-53
2023/03/20 10:52:31;;;;;;;10.23;5.80;;;25.40;85.00;;;;;;5013123;28;20026;-53
2023/03/20 10:55:00;;;;;;;10.55;4.57;;;;;;;;;;5024619;28;20459;-56
2023/03/20 10:57:30;;;;;;;11.15;5.35;;;26.30;77.00;;;;;;5027702;28;20037;-53
2023/03/20 10:59:57;;;;;;;9.57;5.90;;;26.10;75.70;;;;;;5012971;28;20572;-56
2023/03/20 11:02:27;;;;;;;15.25;6.18;;;;;;;;;;5013007;28;20038;-55
2023/03/20 11:04:52;;;;;;;8.98;5.47;;;26.40;75.90;;;;;;5012915;28;20030;-55
2023/03/20 11:07:23;;;;;;;7.78;5.05;;;;;;;;;;5012769;28;20120;-54
2023/03/20 11:10:03;;;;;;;8.43;5.05;;;26.20;74.40;;;;;;5007199;28;20049;-52
2023/03/20 11:12:32;;;;;;;11.68;5.60;;;25.70;77.60;;;;;;5032170;28;20044;-57
2023/03/20 11:15:17;;;;;;;7.15;4.68;;;;;;;;;;5014896;28;20104;-53
2023/03/20 11:17:51;;;;;;;12.75;5.28;;;26.00;75.30;;;;;;5020391;28;20032;-54
2023/03/20 11:20:17;;;;;;;19.77;5.43;;;;;;;;;;5021888;28;20048;-55
2023/03/20 11:22:43;;;;;;;10.35;5.60;;;;;;;;;;5020334;28;20057;-52
2023/03/20 11:25:22;;;;;;;7.50;5.53;;;;;;;;;;5022993;28;20026;-53
2023/03/20 11:27:47;;;;;;;5.88;4.32;;;27.60;74.90;;;;;;5023771;28;20393;-55
2023/03/20 11:30:17;;;;;;;7.78;4.05;;;27.20;74.90;;;;;;5015815;28;20034;-53
2023/03/20 11:32:49;;;;;;;12.30;5.32;;;27.20;74.20;;;;;;5019688;28;20037;-51
2023/03/20 11:35:17;;;;;;;8.52;4.88;;;27.40;75.20;;;;;;5017161;28;20474;-53
2023/03/20 11:37:49;;;;;;;8.05;4.38;;;27.50;75.30;;;;;;5015914;28;20034;-55
2023/03/20 11:40:20;;;;;;;;;;;27.40;74.70;;;;;;5045323;28;20517;-50
2023/03/20 11:43:02;;;;;;;8.25;3.83;;;26.80;74.60;;;;;;5020340;28;19914;-51
2023/03/20 11:45:44;;;;;;;12.02;4.75;;;26.20;74.70;;;;;;5023238;28;20385;-51
2023/03/20 11:48:24;;;;;;;6.63;3.90;;;26.90;76.40;;;;;;5028580;28;20026;-53
2023/03/20 11:51:22;;;;;;;8.48;3.95;;;26.80;74.90;;;;;;5024334;28;20030;-51
2023/03/20 11:53:48;;;;;;;5.35;3.80;;;26.90;74.30;;;;;;5020374;28;20069;-52
2023/03/20 11:56:23;;;;;;;8.00;3.42;;;26.20;74.30;;;;;;5018867;28;20065;-51
2023/03/20 11:59:03;;;;;;;9.05;4.10;;;26.80;74.70;;;;;;5019339;28;20193;-53
2023/03/20 12:01:47;;;;;;;8.10;4.22;;;26.90;75.30;;;;;;5019875;28;20044;-49
2023/03/20 12:04:16;;;;;;;6.88;3.45;;;26.80;75.80;;;;;;5009656;28;20116;-50
2023/03/20 12:06:54;;;;;;;4.93;3.22;;;26.70;75.50;;;;;;5019534;28;20112;-52
2023/03/20 12:09:25;;;;;;;5.13;3.20;;;26.90;75.00;;;;;;5023323;28;20041;-52
2023/03/20 12:12:02;;;;;;;8.93;4.25;;;27.20;74.30;;;;;;5020081;28;20041;-52
2023/03/20 12:14:46;;;;;;;5.95;3.40;;;26.50;74.50;;;;;;5020868;28;20116;-51
2023/03/20 12:17:30;;;;;;;6.10;3.45;;;26.70;74.10;;;;;;5020370;28;20112;-53
2023/03/20 12:20:03;;;;;;;4.93;3.10;;;27.30;74.50;;;;;;5019138;28;20065;-49
2023/03/20 12:22:36;;;;;;;4.85;2.85;;;26.40;74.30;;;;;;5016259;28;20061;-53
2023/03/20 12:25:17;;;;;;;6.72;2.83;;;26.20;74.60;;;;;;5012942;28;20026;-50
2023/03/20 12:27:48;;;;;;;5.45;3.20;;;26.10;76.40;;;;;;5021961;28;20040;-50
2023/03/20 12:30:18;;;;;;;6.53;3.03;;;26.40;74.80;;;;;;5032879;28;20034;-50
2023/03/20 12:32:58;;;;;;;8.45;2.70;;;26.50;73.60;;;;;;5019108;28;20029;-49
2023/03/20 12:35:31;;;;;;;4.72;2.78;;;27.00;74.60;;;;;;5013313;28;20397;-50
2023/03/20 12:37:57;;;;;;;6.95;3.00;;;26.60;74.00;;;;;;5039404;28;20040;-49
2023/03/20 12:40:43;;;;;;;8.18;3.10;;;26.70;75.90;;;;;;5033307;28;20038;-49
2023/03/20 12:43:19;;;;;;;6.40;2.67;;;26.20;75.40;;;;;;5047919;28;20397;-50
2023/03/20 12:46:27;;;;;;;6.90;3.05;;;25.60;74.70;;;;;;5032576;28;20036;-50
2023/03/20 12:49:17;;;;;;;8.57;2.85;;;26.10;74.30;;;;;;5032968;28;20436;-50
2023/03/20 12:51:42;;;;;;;11.18;3.03;;;26.00;74.60;;;;;;5047829;28;20121;-49
2023/03/20 12:54:12;;;;;;;5.85;3.00;;;26.70;75.90;;;;;;5047916;28;20543;-51
2023/03/20 12:56:53;;;;;;;5.95;2.50;;;27.10;74.50;;;;;;5033218;28;20428;-50
2023/03/20 12:59:39;;;;;;;5.72;3.17;;;27.10;74.30;;;;;;5032962;28;20026;-49
2023/03/20 13:02:29;;;;;;;5.18;2.80;;;27.10;75.30;;;;;;5047851;28;20026;-49
2023/03/20 13:05:09;;;;;;;4.07;2.83;;;27.20;75.30;;;;;;5033253;28;20018;-50
2023/03/20 13:07:54;;;;;;;6.70;3.85;;;26.50;73.60;;;;;;5047622;28;20543;-49